createdAt,value
2018-02-17T00:00:46.506Z,0
2018-02-17T00:01:47.008Z,0
2018-02-17T00:02:46.981Z,0
2018-02-17T00:03:46.977Z,0
2018-02-17T00:04:46.724Z,0
2018-02-17T00:05:46.917Z,0
2018-02-17T00:06:47.159Z,0
2018-02-17T00:07:46.600Z,0
2018-02-17T00:08:47.109Z,0
2018-02-17T00:09:47.088Z,0
2018-02-17T00:10:47.059Z,0
2018-02-17T00:11:46.247Z,0
2018-02-17T00:12:46.758Z,0
2018-02-17T00:13:46.736Z,0
2018-02-17T00:14:46.983Z,0
2018-02-17T00:15:46.686Z,0
2018-02-17T00:16:46.656Z,0
2018-02-17T00:17:46.374Z,0
2018-02-17T00:18:46.077Z,0
2018-02-17T00:19:46.582Z,0
2018-02-17T00:20:46.293Z,0
2018-02-17T00:21:46.841Z,0
2018-02-17T00:22:46.520Z,0
2018-02-17T00:23:46.775Z,0
2018-02-17T00:24:45.937Z,0
2018-02-17T00:25:46.455Z,0
2018-02-17T00:26:46.685Z,0
2018-02-17T00:27:46.133Z,0
2018-02-17T00:28:46.648Z,0
2018-02-17T00:29:46.354Z,0
2018-02-17T00:30:45.792Z,0
2018-02-17T00:31:46.312Z,0
2018-02-17T00:32:46.292Z,0
2018-02-17T00:33:46.527Z,0
2018-02-17T00:34:45.705Z,0
2018-02-17T00:35:46.213Z,0
2018-02-17T00:36:46.196Z,0
2018-02-17T00:37:45.899Z,0
2018-02-17T00:38:45.607Z,0
2018-02-17T00:39:46.110Z,0
2018-02-17T00:40:46.364Z,0
2018-02-17T00:41:45.801Z,0
2018-02-17T00:42:45.783Z,0
2018-02-17T00:43:46.017Z,0
2018-02-17T00:44:45.999Z,0
2018-02-17T00:45:45.464Z,0
2018-02-17T00:46:45.959Z,0
2018-02-17T00:47:45.933Z,0
2018-02-17T00:48:45.370Z,0
2018-02-17T00:49:45.619Z,0
2018-02-17T00:50:46.127Z,0
2018-02-17T00:51:46.100Z,0
2018-02-17T00:52:45.810Z,0
2018-02-17T00:53:45.257Z,0
2018-02-17T00:54:46.028Z,0
2018-02-17T00:55:45.478Z,0
2018-02-17T00:56:45.199Z,0
2018-02-17T00:57:45.695Z,0
2018-02-17T00:58:45.411Z,0
2018-02-17T00:59:45.377Z,0
2018-02-17T01:00:45.629Z,0
2018-02-17T01:01:45.328Z,0
2018-02-17T01:02:45.575Z,0
2018-02-17T01:03:45.559Z,0
2018-02-17T01:04:45.801Z,0
2018-02-17T01:05:45.770Z,0
2018-02-17T01:06:45.484Z,0
2018-02-17T01:07:45.724Z,0
2018-02-17T01:08:45.695Z,0
2018-02-17T01:09:45.143Z,0
2018-02-17T01:10:45.655Z,0
2018-02-17T01:11:45.374Z,0
2018-02-17T01:12:45.608Z,0
2018-02-17T01:13:44.787Z,0
2018-02-17T01:14:44.490Z,0
2018-02-17T01:15:45.287Z,0
2018-02-17T01:16:45.501Z,0
2018-02-17T01:17:45.230Z,0
2018-02-17T01:18:44.936Z,0
2018-02-17T01:19:45.177Z,0
2018-02-17T01:20:44.618Z,0
2018-02-17T01:21:44.872Z,0
2018-02-17T01:22:45.140Z,0
2018-02-17T01:23:45.088Z,0
2018-02-17T01:24:44.788Z,0
2018-02-17T01:25:44.763Z,0
2018-02-17T01:26:45.271Z,0
2018-02-17T01:27:44.989Z,0
2018-02-17T01:28:45.291Z,0
2018-02-17T01:29:44.940Z,0
2018-02-17T01:30:44.649Z,0
2018-02-17T01:31:44.625Z,0
2018-02-17T01:32:44.862Z,0
2018-02-17T01:33:45.102Z,0
2018-02-17T01:34:44.549Z,0
2018-02-17T01:35:45.054Z,0
2018-02-17T01:36:44.772Z,0
2018-02-17T01:37:45.035Z,0
2018-02-17T01:38:44.453Z,0
2018-02-17T01:39:44.426Z,0
2018-02-17T01:40:44.410Z,0
2018-02-17T01:41:44.376Z,0
2018-02-17T01:42:44.356Z,0
2018-02-17T01:43:44.326Z,0
2018-02-17T01:44:44.573Z,0
2018-02-17T01:45:44.829Z,0
2018-02-17T01:46:44.256Z,0
2018-02-17T01:47:43.965Z,0
2018-02-17T01:48:44.203Z,0
2018-02-17T01:49:44.452Z,0
2018-02-17T01:50:43.630Z,0
2018-02-17T01:51:43.873Z,0
2018-02-17T01:52:44.369Z,0
2018-02-17T01:53:44.351Z,0
2018-02-17T01:54:44.337Z,0
2018-02-17T01:55:44.043Z,0
2018-02-17T01:56:44.267Z,0
2018-02-17T01:57:43.992Z,0
2018-02-17T01:58:44.005Z,0
2018-02-17T01:59:43.681Z,0
2018-02-17T02:00:43.929Z,0
2018-02-17T02:01:44.155Z,0
2018-02-17T02:02:44.137Z,0
2018-02-17T02:03:43.846Z,0
2018-02-17T02:04:44.365Z,0
2018-02-17T02:05:43.533Z,0
2018-02-17T02:06:44.313Z,0
2018-02-17T02:07:44.017Z,0
2018-02-17T02:08:43.731Z,0
2018-02-17T02:09:43.962Z,0
2018-02-17T02:10:43.964Z,0
2018-02-17T02:11:43.932Z,0
2018-02-17T02:12:43.629Z,0
2018-02-17T02:13:43.352Z,0
2018-02-17T02:14:43.585Z,0
2018-02-17T02:15:43.564Z,0
2018-02-17T02:16:43.804Z,0
2018-02-17T02:17:43.515Z,0
2018-02-17T02:18:43.460Z,0
2018-02-17T02:19:43.189Z,0
2018-02-17T02:20:43.700Z,0
2018-02-17T02:21:43.932Z,0
2018-02-17T02:22:43.396Z,0
2018-02-17T02:23:43.365Z,0
2018-02-17T02:24:43.606Z,0
2018-02-17T02:25:43.837Z,0
2018-02-17T02:26:43.827Z,0
2018-02-17T02:27:43.274Z,0
2018-02-17T02:28:43.270Z,0
2018-02-17T02:29:43.509Z,0
2018-02-17T02:30:43.498Z,0
2018-02-17T02:31:43.192Z,0
2018-02-17T02:32:43.419Z,0
2018-02-17T02:33:43.592Z,0
2018-02-17T02:34:42.852Z,0
2018-02-17T02:35:43.084Z,0
2018-02-17T02:36:43.615Z,0
2018-02-17T02:37:43.329Z,0
2018-02-17T02:38:43.311Z,0
2018-02-17T02:39:43.540Z,0
2018-02-17T02:40:43.440Z,0
2018-02-17T02:41:43.219Z,0
2018-02-17T02:42:43.189Z,0
2018-02-17T02:43:42.885Z,0
2018-02-17T02:44:42.876Z,0
2018-02-17T02:45:43.145Z,0
2018-02-17T02:46:43.106Z,0
2018-02-17T02:47:42.540Z,0
2018-02-17T02:48:43.046Z,0
2018-02-17T02:49:43.508Z,0
2018-02-17T02:50:42.982Z,0
2018-02-17T02:51:42.712Z,0
2018-02-17T02:52:42.673Z,0
2018-02-17T02:53:42.909Z,0
2018-02-17T02:54:42.633Z,0
2018-02-17T02:55:43.124Z,0
2018-02-17T02:56:42.841Z,0
2018-02-17T02:57:42.280Z,0
2018-02-17T02:58:42.272Z,0
2018-02-17T02:59:42.519Z,0
2018-02-17T03:00:42.491Z,0
2018-02-17T03:01:42.723Z,0
2018-02-17T03:02:42.178Z,0
2018-02-17T03:03:42.681Z,0
2018-02-17T03:04:42.947Z,0
2018-02-17T03:05:42.903Z,0
2018-02-17T03:06:42.333Z,0
2018-02-17T03:07:42.332Z,0
2018-02-17T03:08:42.228Z,0
2018-02-17T03:09:42.268Z,0
2018-02-17T03:10:42.238Z,0
2018-02-17T03:11:42.206Z,0
2018-02-17T03:12:42.723Z,0
2018-02-17T03:13:42.447Z,0
2018-02-17T03:14:42.407Z,0
2018-02-17T03:15:42.326Z,0
2018-02-17T03:16:41.829Z,0
2018-02-17T03:17:42.464Z,0
2018-02-17T03:18:42.043Z,0
2018-02-17T03:19:42.308Z,0
2018-02-17T03:20:42.001Z,0
2018-02-17T03:21:41.977Z,0
2018-02-17T03:22:41.619Z,0
2018-02-17T03:23:41.921Z,0
2018-02-17T03:24:42.158Z,0
2018-02-17T03:25:42.129Z,0
2018-02-17T03:26:41.835Z,0
2018-02-17T03:27:41.816Z,0
2018-02-17T03:28:42.047Z,0
2018-02-17T03:29:42.046Z,0
2018-02-17T03:30:41.746Z,0
2018-02-17T03:31:41.714Z,0
2018-02-17T03:32:42.216Z,0
2018-02-17T03:33:41.670Z,0
2018-02-17T03:34:42.172Z,0
2018-02-17T03:35:41.359Z,0
2018-02-17T03:36:41.854Z,0
2018-02-17T03:37:42.098Z,0
2018-02-17T03:38:41.291Z,0
2018-02-17T03:39:42.056Z,0
2018-02-17T03:40:42.077Z,0
2018-02-17T03:41:41.205Z,0
2018-02-17T03:42:41.450Z,0
2018-02-17T03:43:41.161Z,0
2018-02-17T03:44:41.670Z,0
2018-02-17T03:45:41.369Z,0
2018-02-17T03:46:41.088Z,0
2018-02-17T03:47:41.054Z,0
2018-02-17T03:48:41.299Z,0
2018-02-17T03:49:41.807Z,0
2018-02-17T03:50:41.511Z,0
2018-02-17T03:51:41.495Z,0
2018-02-17T03:52:41.205Z,0
2018-02-17T03:53:40.916Z,0
2018-02-17T03:54:40.629Z,0
2018-02-17T03:55:41.393Z,0
2018-02-17T03:56:41.633Z,0
2018-02-17T03:57:41.607Z,0
2018-02-17T03:58:41.043Z,0
2018-02-17T03:59:41.306Z,0
2018-02-17T04:00:40.999Z,0
2018-02-17T04:01:40.984Z,0
2018-02-17T04:02:40.951Z,0
2018-02-17T04:03:41.468Z,0
2018-02-17T04:04:40.900Z,0
2018-02-17T04:05:40.613Z,0
2018-02-17T04:06:40.853Z,0
2018-02-17T04:07:41.096Z,0
2018-02-17T04:08:41.068Z,0
2018-02-17T04:09:41.048Z,0
2018-02-17T04:10:40.757Z,0
2018-02-17T04:11:40.738Z,0
2018-02-17T04:12:41.026Z,0
2018-02-17T04:13:40.416Z,0
2018-02-17T04:14:40.661Z,0
2018-02-17T04:15:40.750Z,0
2018-02-17T04:16:40.622Z,0
2018-02-17T04:17:40.320Z,0
2018-02-17T04:18:41.081Z,0
2018-02-17T04:19:40.569Z,0
2018-02-17T04:20:40.778Z,0
2018-02-17T04:21:40.486Z,0
2018-02-17T04:22:40.464Z,0
2018-02-17T04:23:40.445Z,0
2018-02-17T04:24:40.943Z,0
2018-02-17T04:25:40.394Z,0
2018-02-17T04:26:40.110Z,0
2018-02-17T04:27:40.608Z,0
2018-02-17T04:28:40.050Z,0
2018-02-17T04:29:40.292Z,0
2018-02-17T04:30:39.744Z,0
2018-02-17T04:31:40.244Z,0
2018-02-17T04:32:40.487Z,0
2018-02-17T04:33:40.198Z,0
2018-02-17T04:34:40.697Z,0
2018-02-17T04:35:40.408Z,0
2018-02-17T04:36:39.860Z,0
2018-02-17T04:37:39.827Z,0
2018-02-17T04:38:39.804Z,0
2018-02-17T04:39:40.053Z,0
2018-02-17T04:40:40.015Z,0
2018-02-17T04:41:40.256Z,0
2018-02-17T04:42:39.977Z,0
2018-02-17T04:43:39.949Z,0
2018-02-17T04:44:40.192Z,0
2018-02-17T04:45:40.165Z,0
2018-02-17T04:46:40.135Z,0
2018-02-17T04:47:40.382Z,0
2018-02-17T04:48:39.852Z,0
2018-02-17T04:49:40.063Z,0
2018-02-17T04:50:39.774Z,0
2018-02-17T04:51:39.750Z,0
2018-02-17T04:52:39.744Z,0
2018-02-17T04:53:39.707Z,0
2018-02-17T04:54:40.213Z,0
2018-02-17T04:55:39.915Z,0
2018-02-17T04:56:39.632Z,0
2018-02-17T04:57:39.078Z,0
2018-02-17T04:58:39.841Z,0
2018-02-17T04:59:39.553Z,0
2018-02-17T05:00:39.532Z,0
2018-02-17T05:01:39.252Z,0
2018-02-17T05:02:39.484Z,0
2018-02-17T05:03:39.727Z,0
2018-02-17T05:04:39.443Z,0
2018-02-17T05:05:39.146Z,0
2018-02-17T05:06:39.699Z,0
2018-02-17T05:07:39.896Z,0
2018-02-17T05:08:39.860Z,0
2018-02-17T05:09:39.580Z,0
2018-02-17T05:10:39.304Z,0
2018-02-17T05:11:39.794Z,0
2018-02-17T05:12:39.762Z,0
2018-02-17T05:13:38.943Z,0
2018-02-17T05:14:38.920Z,0
2018-02-17T05:15:39.422Z,0
2018-02-17T05:16:39.681Z,0
2018-02-17T05:17:39.111Z,0
2018-02-17T05:18:39.090Z,0
2018-02-17T05:19:39.330Z,0
2018-02-17T05:20:39.302Z,0
2018-02-17T05:21:39.283Z,0
2018-02-17T05:22:39.205Z,0
2018-02-17T05:23:39.238Z,0
2018-02-17T05:24:39.200Z,0
2018-02-17T05:25:39.180Z,0
2018-02-17T05:26:39.163Z,0
2018-02-17T05:27:39.412Z,0
2018-02-17T05:28:38.845Z,0
2018-02-17T05:29:39.081Z,0
2018-02-17T05:30:39.054Z,0
2018-02-17T05:31:38.503Z,0
2018-02-17T05:32:38.748Z,0
2018-02-17T05:33:38.719Z,0
2018-02-17T05:34:39.223Z,0
2018-02-17T05:35:38.397Z,0
2018-02-17T05:36:38.913Z,0
2018-02-17T05:37:38.361Z,0
2018-02-17T05:38:38.865Z,0
2018-02-17T05:39:38.577Z,0
2018-02-17T05:40:38.851Z,0
2018-02-17T05:41:38.529Z,0
2018-02-17T05:42:38.760Z,0
2018-02-17T05:43:38.937Z,0
2018-02-17T05:44:38.708Z,0
2018-02-17T05:45:38.430Z,0
2018-02-17T05:46:38.931Z,0
2018-02-17T05:47:38.376Z,0
2018-02-17T05:48:38.348Z,0
2018-02-17T05:49:38.070Z,0
2018-02-17T05:50:38.051Z,0
2018-02-17T05:51:38.087Z,0
2018-02-17T05:52:38.526Z,0
2018-02-17T05:53:37.964Z,0
2018-02-17T05:54:37.938Z,0
2018-02-17T05:55:38.441Z,0
2018-02-17T05:56:38.419Z,0
2018-02-17T05:57:38.654Z,0
2018-02-17T05:58:38.640Z,0
2018-02-17T05:59:38.349Z,0
2018-02-17T06:00:38.327Z,0
2018-02-17T06:01:38.078Z,0
2018-02-17T06:02:38.535Z,0
2018-02-17T06:03:37.977Z,0
2018-02-17T06:04:37.967Z,0
2018-02-17T06:05:38.458Z,0
2018-02-17T06:06:37.894Z,0
2018-02-17T06:07:38.145Z,0
2018-02-17T06:08:38.114Z,0
2018-02-17T06:09:37.871Z,0
2018-02-17T06:10:37.823Z,0
2018-02-17T06:11:37.831Z,0
2018-02-17T06:12:38.046Z,0
2018-02-17T06:13:37.730Z,0
2018-02-17T06:14:38.244Z,0
2018-02-17T06:15:37.691Z,0
2018-02-17T06:16:37.671Z,0
2018-02-17T06:17:37.644Z,0
2018-02-17T06:18:37.374Z,0
2018-02-17T06:19:37.899Z,0
2018-02-17T06:20:37.826Z,0
2018-02-17T06:21:38.189Z,0
2018-02-17T06:22:37.523Z,0
2018-02-17T06:23:37.759Z,0
2018-02-17T06:24:37.199Z,0
2018-02-17T06:25:37.174Z,0
2018-02-17T06:26:37.688Z,0
2018-02-17T06:27:37.658Z,0
2018-02-17T06:28:37.635Z,0
2018-02-17T06:29:37.620Z,0
2018-02-17T06:30:37.592Z,0
2018-02-17T06:31:37.492Z,0
2018-02-17T06:32:37.275Z,0
2018-02-17T06:33:37.236Z,0
2018-02-17T06:34:37.219Z,0
2018-02-17T06:35:37.728Z,0
2018-02-17T06:36:37.444Z,0
2018-02-17T06:37:37.412Z,0
2018-02-17T06:38:36.858Z,0
2018-02-17T06:39:37.098Z,0
2018-02-17T06:40:37.076Z,0
2018-02-17T06:41:37.586Z,0
2018-02-17T06:42:37.291Z,0
2018-02-17T06:43:37.266Z,0
2018-02-17T06:44:36.982Z,0
2018-02-17T06:45:36.693Z,5
2018-02-17T06:46:37.180Z,5
2018-02-17T06:47:36.896Z,5
2018-02-17T06:48:36.611Z,5
2018-02-17T06:49:37.111Z,5
2018-02-17T06:50:37.085Z,5
2018-02-17T06:51:36.808Z,5
2018-02-17T06:52:36.516Z,5
2018-02-17T06:53:37.017Z,5
2018-02-17T06:54:37.008Z,5
2018-02-17T06:55:36.973Z,10
2018-02-17T06:56:36.409Z,10
2018-02-17T06:57:36.655Z,10
2018-02-17T06:58:36.894Z,10
2018-02-17T06:59:36.610Z,10
2018-02-17T07:00:36.853Z,10
2018-02-17T07:01:36.565Z,10
2018-02-17T07:02:36.803Z,15
2018-02-17T07:03:36.552Z,15
2018-02-17T07:04:37.038Z,15
2018-02-17T07:05:36.987Z,15
2018-02-17T07:06:36.438Z,15
2018-02-17T07:07:36.694Z,15
2018-02-17T07:08:36.402Z,15
2018-02-17T07:09:36.638Z,20
2018-02-17T07:10:36.345Z,20
2018-02-17T07:11:36.862Z,20
2018-02-17T07:12:36.825Z,20
2018-02-17T07:13:36.273Z,20
2018-02-17T07:14:36.824Z,25
2018-02-17T07:15:36.219Z,25
2018-02-17T07:16:36.724Z,25
2018-02-17T07:17:35.898Z,25
2018-02-17T07:18:36.413Z,25
2018-02-17T07:19:36.384Z,25
2018-02-17T07:20:36.396Z,25
2018-02-17T07:21:36.078Z,25
2018-02-17T07:22:36.530Z,25
2018-02-17T07:23:35.751Z,25
2018-02-17T07:24:35.999Z,30
2018-02-17T07:25:35.717Z,30
2018-02-17T07:26:36.481Z,30
2018-02-17T07:27:35.931Z,30
2018-02-17T07:28:35.902Z,30
2018-02-17T07:29:35.876Z,30
2018-02-17T07:30:35.591Z,30
2018-02-17T07:31:35.564Z,35
2018-02-17T07:32:36.064Z,35
2018-02-17T07:33:35.779Z,35
2018-02-17T07:34:35.758Z,35
2018-02-17T07:35:35.204Z,40
2018-02-17T07:36:35.971Z,40
2018-02-17T07:37:35.958Z,40
2018-02-17T07:38:35.977Z,40
2018-02-17T07:39:35.900Z,40
2018-02-17T07:40:35.877Z,45
2018-02-17T07:41:35.589Z,45
2018-02-17T07:42:36.053Z,45
2018-02-17T07:43:36.080Z,45
2018-02-17T07:44:35.524Z,45
2018-02-17T07:45:36.050Z,45
2018-02-17T07:46:35.757Z,50
2018-02-17T07:47:35.173Z,50
2018-02-17T07:48:35.683Z,50
2018-02-17T07:49:35.673Z,55
2018-02-17T07:50:35.374Z,55
2018-02-17T07:51:36.206Z,55
2018-02-17T07:52:35.317Z,55
2018-02-17T07:53:35.826Z,55
2018-02-17T07:54:35.542Z,60
2018-02-17T07:55:35.467Z,60
2018-02-17T07:56:34.972Z,60
2018-02-17T07:57:35.219Z,60
2018-02-17T07:58:34.916Z,60
2018-02-17T07:59:35.741Z,60
2018-02-17T08:00:35.135Z,60
2018-02-17T08:01:35.369Z,65
2018-02-17T08:02:35.652Z,65
2018-02-17T08:03:35.076Z,65
2018-02-17T08:04:34.776Z,65
2018-02-17T08:05:34.788Z,65
2018-02-17T08:06:34.987Z,65
2018-02-17T08:07:35.546Z,65
2018-02-17T08:08:35.217Z,65
2018-02-17T08:09:35.182Z,65
2018-02-17T08:10:35.155Z,65
2018-02-17T08:11:35.090Z,65
2018-02-17T08:12:34.868Z,70
2018-02-17T08:13:34.819Z,70
2018-02-17T08:14:34.537Z,75
2018-02-17T08:15:35.141Z,75
2018-02-17T08:16:34.763Z,75
2018-02-17T08:17:35.345Z,80
2018-02-17T08:18:34.715Z,80
2018-02-17T08:19:35.001Z,80
2018-02-17T08:20:34.759Z,80
2018-02-17T08:21:35.192Z,80
2018-02-17T08:22:34.629Z,85
2018-02-17T08:23:34.862Z,85
2018-02-17T08:24:34.928Z,85
2018-02-17T08:25:34.052Z,90
2018-02-17T08:26:34.517Z,90
2018-02-17T08:27:34.769Z,90
2018-02-17T08:28:35.006Z,90
2018-02-17T08:29:34.459Z,90
2018-02-17T08:30:34.497Z,90
2018-02-17T08:31:34.145Z,90
2018-02-17T08:32:34.593Z,90
2018-02-17T08:33:34.644Z,90
2018-02-17T08:34:34.609Z,90
2018-02-17T08:35:34.322Z,90
2018-02-17T08:36:34.864Z,90
2018-02-17T08:37:34.811Z,90
2018-02-17T08:38:34.558Z,90
2018-02-17T08:39:34.553Z,90
2018-02-17T08:40:34.472Z,95
2018-02-17T08:41:34.649Z,95
2018-02-17T08:42:34.158Z,95
2018-02-17T08:43:34.150Z,100
2018-02-17T08:44:34.391Z,100
2018-02-17T08:45:34.363Z,100
2018-02-17T08:46:33.842Z,100
2018-02-17T08:47:34.044Z,100
2018-02-17T08:48:34.561Z,100
2018-02-17T08:49:34.546Z,105
2018-02-17T08:50:34.000Z,105
2018-02-17T08:51:33.958Z,105
2018-02-17T08:52:34.475Z,105
2018-02-17T08:53:34.464Z,110
2018-02-17T08:54:33.902Z,110
2018-02-17T08:55:33.896Z,110
2018-02-17T08:56:33.576Z,110
2018-02-17T08:57:33.851Z,115
2018-02-17T08:58:34.083Z,115
2018-02-17T08:59:34.062Z,120
2018-02-17T09:00:34.029Z,125
2018-02-17T09:01:33.995Z,125
2018-02-17T09:02:33.704Z,130
2018-02-17T09:03:33.688Z,130
2018-02-17T09:04:33.720Z,130
2018-02-17T09:05:33.906Z,135
2018-02-17T09:06:33.894Z,140
2018-02-17T09:07:33.066Z,145
2018-02-17T09:08:34.105Z,150
2018-02-17T09:09:33.574Z,155
2018-02-17T09:10:33.526Z,155
2018-02-17T09:11:33.234Z,160
2018-02-17T09:12:33.942Z,165
2018-02-17T09:13:33.741Z,165
2018-02-17T09:14:33.447Z,165
2018-02-17T09:15:33.945Z,170
2018-02-17T09:16:33.410Z,170
2018-02-17T09:17:33.378Z,170
2018-02-17T09:18:33.620Z,170
2018-02-17T09:19:33.914Z,170
2018-02-17T09:20:33.597Z,170
2018-02-17T09:21:33.828Z,170
2018-02-17T09:22:33.470Z,170
2018-02-17T09:23:33.528Z,175
2018-02-17T09:24:33.252Z,180
2018-02-17T09:25:33.486Z,180
2018-02-17T09:26:33.178Z,180
2018-02-17T09:27:33.981Z,180
2018-02-17T09:28:33.683Z,180
2018-02-17T09:29:33.655Z,185
2018-02-17T09:30:33.395Z,190
2018-02-17T09:31:33.348Z,190
2018-02-17T09:32:33.051Z,190
2018-02-17T09:33:33.301Z,195
2018-02-17T09:34:33.078Z,195
2018-02-17T09:35:33.522Z,200
2018-02-17T09:36:33.445Z,200
2018-02-17T09:37:32.684Z,195
2018-02-17T09:38:32.942Z,195
2018-02-17T09:39:33.184Z,195
2018-02-17T09:40:33.437Z,200
2018-02-17T09:41:32.864Z,195
2018-02-17T09:42:32.851Z,195
2018-02-17T09:43:32.559Z,195
2018-02-17T09:44:33.075Z,200
2018-02-17T09:45:33.053Z,205
2018-02-17T09:46:32.766Z,210
2018-02-17T09:47:32.751Z,200
2018-02-17T09:48:32.454Z,200
2018-02-17T09:49:32.713Z,200
2018-02-17T09:50:32.428Z,205
2018-02-17T09:51:32.666Z,220
2018-02-17T09:52:32.649Z,230
2018-02-17T09:53:32.615Z,250
2018-02-17T09:54:32.607Z,260
2018-02-17T09:55:32.313Z,265
2018-02-17T09:56:33.089Z,260
2018-02-17T09:57:32.540Z,265
2018-02-17T09:58:32.787Z,265
2018-02-17T09:59:32.499Z,265
2018-02-17T10:00:32.750Z,265
2018-02-17T10:01:32.724Z,260
2018-02-17T10:02:32.710Z,265
2018-02-17T10:03:32.160Z,265
2018-02-17T10:04:32.417Z,270
2018-02-17T10:05:32.384Z,270
2018-02-17T10:06:32.632Z,270
2018-02-17T10:07:32.881Z,270
2018-02-17T10:08:32.325Z,270
2018-02-17T10:09:32.308Z,275
2018-02-17T10:10:33.077Z,280
2018-02-17T10:11:32.055Z,275
2018-02-17T10:12:32.788Z,285
2018-02-17T10:13:32.759Z,295
2018-02-17T10:14:32.222Z,295
2018-02-17T10:15:32.456Z,280
2018-02-17T10:16:32.443Z,265
2018-02-17T10:17:32.847Z,265
2018-02-17T10:18:32.420Z,260
2018-02-17T10:19:32.449Z,255
2018-02-17T10:20:32.616Z,265
2018-02-17T10:21:32.084Z,255
2018-02-17T10:22:32.339Z,245
2018-02-17T10:23:32.045Z,260
2018-02-17T10:24:31.774Z,255
2018-02-17T10:25:32.020Z,255
2018-02-17T10:26:32.006Z,260
2018-02-17T10:27:32.525Z,260
2018-02-17T10:28:31.961Z,260
2018-02-17T10:29:32.212Z,260
2018-02-17T10:30:31.656Z,255
2018-02-17T10:31:32.157Z,245
2018-02-17T10:32:31.900Z,250
2018-02-17T10:33:31.868Z,240
2018-02-17T10:34:31.844Z,245
2018-02-17T10:35:32.324Z,245
2018-02-17T10:36:31.812Z,245
2018-02-17T10:37:31.802Z,245
2018-02-17T10:38:32.302Z,250
2018-02-17T10:39:31.755Z,260
2018-02-17T10:40:31.740Z,265
2018-02-17T10:41:32.034Z,275
2018-02-17T10:42:31.720Z,275
2018-02-17T10:43:31.951Z,265
2018-02-17T10:44:31.666Z,260
2018-02-17T10:45:31.648Z,265
2018-02-17T10:46:32.159Z,275
2018-02-17T10:47:31.880Z,280
2018-02-17T10:48:31.874Z,290
2018-02-17T10:49:32.108Z,285
2018-02-17T10:50:31.555Z,280
2018-02-17T10:51:31.541Z,265
2018-02-17T10:52:31.255Z,265
2018-02-17T10:53:31.512Z,285
2018-02-17T10:54:31.219Z,285
2018-02-17T10:55:31.208Z,290
2018-02-17T10:56:31.557Z,300
2018-02-17T10:57:31.451Z,305
2018-02-17T10:58:31.168Z,310
2018-02-17T10:59:31.669Z,305
2018-02-17T11:00:31.648Z,305
2018-02-17T11:01:31.903Z,290
2018-02-17T11:02:31.618Z,295
2018-02-17T11:03:31.348Z,285
2018-02-17T11:04:31.334Z,295
2018-02-17T11:05:31.567Z,290
2018-02-17T11:06:31.282Z,280
2018-02-17T11:07:31.272Z,265
2018-02-17T11:08:30.986Z,260
2018-02-17T11:09:31.492Z,265
2018-02-17T11:10:31.481Z,265
2018-02-17T11:11:31.197Z,265
2018-02-17T11:12:31.449Z,275
2018-02-17T11:13:30.905Z,270
2018-02-17T11:14:31.154Z,275
2018-02-17T11:15:31.358Z,285
2018-02-17T11:16:31.389Z,290
2018-02-17T11:17:31.375Z,295
2018-02-17T11:18:31.090Z,290
2018-02-17T11:19:30.801Z,295
2018-02-17T11:20:31.052Z,295
2018-02-17T11:21:30.505Z,290
2018-02-17T11:22:31.483Z,290
2018-02-17T11:23:31.259Z,280
2018-02-17T11:24:31.242Z,285
2018-02-17T11:25:31.507Z,280
2018-02-17T11:26:30.948Z,280
2018-02-17T11:27:30.697Z,275
2018-02-17T11:28:30.714Z,275
2018-02-17T11:29:30.919Z,270
2018-02-17T11:30:30.876Z,275
2018-02-17T11:31:31.133Z,275
2018-02-17T11:32:31.117Z,275
2018-02-17T11:33:31.101Z,280
2018-02-17T11:34:30.823Z,280
2018-02-17T11:35:30.535Z,270
2018-02-17T11:36:30.512Z,265
2018-02-17T11:37:31.037Z,265
2018-02-17T11:38:31.271Z,265
2018-02-17T11:39:30.992Z,270
2018-02-17T11:40:30.979Z,270
2018-02-17T11:41:30.705Z,270
2018-02-17T11:42:30.946Z,265
2018-02-17T11:43:30.658Z,270
2018-02-17T11:44:30.645Z,260
2018-02-17T11:45:30.373Z,250
2018-02-17T11:46:30.360Z,250
2018-02-17T11:47:30.924Z,240
2018-02-17T11:48:30.628Z,240
2018-02-17T11:49:30.565Z,250
2018-02-17T11:50:30.819Z,255
2018-02-17T11:51:30.789Z,255
2018-02-17T11:52:30.244Z,255
2018-02-17T11:53:30.812Z,255
2018-02-17T11:54:30.485Z,255
2018-02-17T11:55:30.188Z,260
2018-02-17T11:56:30.719Z,265
2018-02-17T11:57:30.893Z,265
2018-02-17T11:58:30.153Z,275
2018-02-17T11:59:30.145Z,285
2018-02-17T12:00:30.120Z,285
2018-02-17T12:01:30.102Z,280
2018-02-17T12:02:30.634Z,280
2018-02-17T12:03:30.762Z,285
2018-02-17T12:04:30.573Z,290
2018-02-17T12:05:30.285Z,310
2018-02-17T12:06:30.010Z,305
2018-02-17T12:07:30.523Z,310
2018-02-17T12:08:30.230Z,305
2018-02-17T12:09:30.473Z,295
2018-02-17T12:10:30.204Z,290
2018-02-17T12:11:29.910Z,285
2018-02-17T12:12:29.907Z,290
2018-02-17T12:13:30.153Z,285
2018-02-17T12:14:30.137Z,280
2018-02-17T12:15:30.405Z,280
2018-02-17T12:16:29.855Z,280
2018-02-17T12:17:30.084Z,275
2018-02-17T12:18:30.344Z,275
2018-02-17T12:19:30.332Z,265
2018-02-17T12:20:30.038Z,270
2018-02-17T12:21:30.278Z,265
2018-02-17T12:22:30.267Z,270
2018-02-17T12:23:30.250Z,270
2018-02-17T12:24:29.977Z,275
2018-02-17T12:25:30.218Z,275
2018-02-17T12:26:29.941Z,290
2018-02-17T12:27:30.189Z,285
2018-02-17T12:28:30.293Z,300
2018-02-17T12:29:30.166Z,300
2018-02-17T12:30:29.335Z,310
2018-02-17T12:31:29.860Z,325
2018-02-17T12:32:30.390Z,350
2018-02-17T12:33:29.820Z,380
2018-02-17T12:34:29.929Z,395
2018-02-17T12:35:30.054Z,390
2018-02-17T12:36:30.053Z,365
2018-02-17T12:37:30.042Z,360
2018-02-17T12:38:30.005Z,375
2018-02-17T12:39:29.732Z,395
2018-02-17T12:40:29.975Z,380
2018-02-17T12:41:29.690Z,400
2018-02-17T12:42:29.945Z,465
2018-02-17T12:43:29.668Z,465
2018-02-17T12:44:29.665Z,505
2018-02-17T12:45:29.918Z,485
2018-02-17T12:46:29.615Z,465
2018-02-17T12:47:29.594Z,490
2018-02-17T12:48:29.590Z,505
2018-02-17T12:49:29.300Z,515
2018-02-17T12:50:29.843Z,585
2018-02-17T12:51:29.820Z,585
2018-02-17T12:52:29.815Z,575
2018-02-17T12:53:29.592Z,555
2018-02-17T12:54:29.514Z,605
2018-02-17T12:55:29.771Z,640
2018-02-17T12:56:30.217Z,640
2018-02-17T12:57:29.742Z,645
2018-02-17T12:58:29.746Z,655
2018-02-17T12:59:29.738Z,575
2018-02-17T13:00:29.420Z,600
2018-02-17T13:01:29.419Z,615
2018-02-17T13:02:30.169Z,610
2018-02-17T13:03:28.872Z,590
2018-02-17T13:04:29.372Z,545
2018-02-17T13:05:29.639Z,505
2018-02-17T13:06:29.621Z,565
2018-02-17T13:07:29.887Z,555
2018-02-17T13:08:29.608Z,630
2018-02-17T13:09:29.587Z,590
2018-02-17T13:10:29.327Z,570
2018-02-17T13:11:29.566Z,570
2018-02-17T13:12:29.292Z,600
2018-02-17T13:13:29.080Z,540
2018-02-17T13:14:29.542Z,600
2018-02-17T13:15:28.981Z,605
2018-02-17T13:16:29.247Z,450
2018-02-17T13:17:29.216Z,635
2018-02-17T13:18:29.735Z,630
2018-02-17T13:19:29.461Z,645
2018-02-17T13:20:29.720Z,655
2018-02-17T13:21:29.191Z,695
2018-02-17T13:22:29.167Z,590
2018-02-17T13:23:29.151Z,640
2018-02-17T13:24:29.413Z,665
2018-02-17T13:25:29.138Z,680
2018-02-17T13:26:28.862Z,660
2018-02-17T13:27:29.115Z,675
2018-02-17T13:28:28.835Z,620
2018-02-17T13:29:29.359Z,620
2018-02-17T13:30:29.358Z,600
2018-02-17T13:31:29.075Z,560
2018-02-17T13:32:29.601Z,500
2018-02-17T13:33:29.065Z,470
2018-02-17T13:34:29.314Z,455
2018-02-17T13:35:29.307Z,435
2018-02-17T13:36:28.780Z,420
2018-02-17T13:37:29.310Z,370
2018-02-17T13:38:29.034Z,325
2018-02-17T13:39:29.076Z,305
2018-02-17T13:40:29.007Z,265
2018-02-17T13:41:29.000Z,250
2018-02-17T13:42:28.988Z,245
2018-02-17T13:43:28.978Z,230
2018-02-17T13:44:28.955Z,225
2018-02-17T13:45:29.465Z,215
2018-02-17T13:46:28.936Z,205
2018-02-17T13:47:29.519Z,205
2018-02-17T13:48:28.921Z,205
2018-02-17T13:49:28.634Z,200
2018-02-17T13:50:28.888Z,205
2018-02-17T13:51:29.405Z,200
2018-02-17T13:52:28.595Z,200
2018-02-17T13:53:28.899Z,200
2018-02-17T13:54:28.852Z,195
2018-02-17T13:55:28.850Z,195
2018-02-17T13:56:28.805Z,195
2018-02-17T13:57:28.811Z,195
2018-02-17T13:58:29.061Z,195
2018-02-17T13:59:28.781Z,190
2018-02-17T14:00:28.771Z,190
2018-02-17T14:01:28.756Z,190
2018-02-17T14:02:28.502Z,190
2018-02-17T14:03:28.979Z,190
2018-02-17T14:04:28.718Z,190
2018-02-17T14:05:28.722Z,195
2018-02-17T14:06:28.426Z,200
2018-02-17T14:07:28.958Z,210
2018-02-17T14:08:28.632Z,215
2018-02-17T14:09:28.924Z,225
2018-02-17T14:10:28.880Z,230
2018-02-17T14:11:28.323Z,230
2018-02-17T14:12:28.892Z,225
2018-02-17T14:13:29.155Z,225
2018-02-17T14:14:28.822Z,230
2018-02-17T14:15:29.079Z,235
2018-02-17T14:16:28.534Z,235
2018-02-17T14:17:28.242Z,235
2018-02-17T14:18:29.040Z,235